createdAt,value
2018-06-04T00:02:07.181Z,87.39
2018-06-04T00:04:35.055Z,87.66
2018-06-04T00:07:02.871Z,87.55
2018-06-04T00:09:30.807Z,89.26
2018-06-04T00:11:58.738Z,91.07
2018-06-04T00:14:26.560Z,92.01
2018-06-04T00:16:54.493Z,92.70
2018-06-04T00:19:22.574Z,92.29
2018-06-04T00:21:50.420Z,90.96
2018-06-04T00:24:18.271Z,90.87
2018-06-04T00:26:46.079Z,89.41
2018-06-04T00:29:13.921Z,88.28
2018-06-04T00:31:41.987Z,88.64
2018-06-04T00:34:09.796Z,86.83
2018-06-04T00:36:37.603Z,87.34
2018-06-04T00:39:07.696Z,87.15
2018-06-04T00:41:35.763Z,87.87
2018-06-04T00:44:03.589Z,87.63
2018-06-04T00:46:31.597Z,87.72
2018-06-04T00:48:59.481Z,87.60
2018-06-04T00:51:27.327Z,86.94
2018-06-04T00:53:55.224Z,85.81
2018-06-04T00:56:24.047Z,86.29
2018-06-04T00:58:51.856Z,85.14
2018-06-04T01:01:19.756Z,85.33
2018-06-04T01:03:47.678Z,85.07
2018-06-04T01:06:15.643Z,85.12
2018-06-04T01:08:43.521Z,84.85
2018-06-04T01:11:11.376Z,86.08
2018-06-04T01:13:40.099Z,86.21
2018-06-04T01:16:08.125Z,85.07
2018-06-04T01:18:35.934Z,85.27
2018-06-04T01:21:03.768Z,85.36
2018-06-04T01:23:31.621Z,86.24
2018-06-04T01:25:59.442Z,88.17
2018-06-04T01:28:27.391Z,87.78
2018-06-04T01:30:55.407Z,88.12
2018-06-04T01:33:23.245Z,89.65
2018-06-04T01:35:51.057Z,88.85
2018-06-04T01:38:19.122Z,89.05
2018-06-04T01:40:47.089Z,90.26
2018-06-04T01:43:14.885Z,90.39
2018-06-04T01:45:42.785Z,89.90
2018-06-04T01:48:10.607Z,90.07
2018-06-04T01:50:38.559Z,89.68
2018-06-04T01:53:06.404Z,89.76
2018-06-04T01:55:34.231Z,90.80
2018-06-04T01:58:02.042Z,93.10
2018-06-04T02:00:30.142Z,92.79
2018-06-04T02:02:58.579Z,94.31
2018-06-04T02:05:26.527Z,94.97
2018-06-04T02:07:54.379Z,93.26
2018-06-04T02:10:22.180Z,93.87
2018-06-04T02:12:49.978Z,92.03
2018-06-04T02:15:17.931Z,91.26
2018-06-04T02:17:45.731Z,91.28
2018-06-04T02:20:13.793Z,91.28
2018-06-04T02:22:41.988Z,89.19
2018-06-04T02:25:09.809Z,88.41
2018-06-04T02:27:37.608Z,87.84
2018-06-04T02:30:05.493Z,87.59
2018-06-04T02:32:34.174Z,88.11
2018-06-04T02:35:02.065Z,88.29
2018-06-04T02:37:29.938Z,88.63
2018-06-04T02:39:57.762Z,89.15
2018-06-04T02:42:25.712Z,88.79
2018-06-04T02:44:54.035Z,89.32
2018-06-04T02:47:24.840Z,90.26
2018-06-04T02:49:53.562Z,89.81
2018-06-04T02:52:21.431Z,90.15
2018-06-04T02:54:49.297Z,89.90
2018-06-04T02:57:17.426Z,90.26
2018-06-04T02:59:45.342Z,89.65
2018-06-04T03:02:13.365Z,89.14
2018-06-04T03:04:41.384Z,89.29
2018-06-04T03:07:09.749Z,89.44
2018-06-04T03:09:37.621Z,89.93
2018-06-04T03:12:05.510Z,89.42
2018-06-04T03:14:33.411Z,90.64
2018-06-04T03:17:01.380Z,91.59
2018-06-04T03:19:29.427Z,90.91
2018-06-04T03:21:57.670Z,91.14
2018-06-04T03:24:25.746Z,91.71
2018-06-04T03:26:53.931Z,92.42
2018-06-04T03:29:21.935Z,91.36
2018-06-04T03:31:49.762Z,90.58
2018-06-04T03:34:17.605Z,90.84
2018-06-04T03:36:45.810Z,91.24
2018-06-04T03:39:13.669Z,89.77
2018-06-04T03:41:41.489Z,88.17
2018-06-04T03:44:09.345Z,88.12
2018-06-04T03:46:37.147Z,88.71
2018-06-04T03:49:05.041Z,89.46
2018-06-04T03:51:33.367Z,89.24
2018-06-04T03:54:01.389Z,89.12
2018-06-04T03:56:29.220Z,88.09
2018-06-04T03:58:57.051Z,87.67
2018-06-04T04:01:24.860Z,89.41
2018-06-04T04:03:52.643Z,88.96
2018-06-04T04:06:20.500Z,88.76
2018-06-04T04:08:48.448Z,88.54
2018-06-04T04:11:16.252Z,90.60
2018-06-04T04:13:44.151Z,89.41
2018-06-04T04:16:11.960Z,88.92
2018-06-04T04:18:39.863Z,88.48
2018-06-04T04:21:07.729Z,87.10
2018-06-04T04:23:35.580Z,86.00
2018-06-04T04:26:03.517Z,86.70
2018-06-04T04:28:31.371Z,86.36
2018-06-04T04:30:59.364Z,85.27
2018-06-04T04:33:27.336Z,84.53
2018-06-04T04:35:55.384Z,84.69
2018-06-04T04:38:23.220Z,84.74
2018-06-04T04:40:50.999Z,84.32
2018-06-04T04:43:21.456Z,86.95
2018-06-04T04:45:49.420Z,86.75
2018-06-04T04:48:17.383Z,85.54
2018-06-04T04:50:45.234Z,84.59
2018-06-04T04:53:13.036Z,84.37
2018-06-04T04:55:40.854Z,83.61
2018-06-04T04:58:08.781Z,81.59
2018-06-04T05:00:36.640Z,80.22
2018-06-04T05:03:04.487Z,79.21
2018-06-04T05:05:32.476Z,78.55
2018-06-04T05:08:00.306Z,80.69
2018-06-04T05:10:28.115Z,83.10
2018-06-04T05:12:56.085Z,80.79
2018-06-04T05:15:23.903Z,80.64
2018-06-04T05:17:51.768Z,78.12
2018-06-04T05:20:19.784Z,77.73
2018-06-04T05:22:47.606Z,78.04
2018-06-04T05:25:15.404Z,76.40
2018-06-04T05:27:43.398Z,76.56
2018-06-04T05:30:11.299Z,76.64
2018-06-04T05:32:39.104Z,76.70
2018-06-04T05:35:06.935Z,75.29
2018-06-04T05:37:34.751Z,75.36
2018-06-04T05:40:02.583Z,74.49
2018-06-04T05:42:30.519Z,73.00
2018-06-04T05:44:58.350Z,72.62
2018-06-04T05:47:26.216Z,72.15
2018-06-04T05:49:54.136Z,71.77
2018-06-04T05:52:21.915Z,71.69
2018-06-04T05:54:49.713Z,71.06
2018-06-04T05:57:17.572Z,69.26
2018-06-04T05:59:45.604Z,68.77
2018-06-04T06:02:13.438Z,69.52
2018-06-04T06:04:41.466Z,68.81
2018-06-04T06:07:09.358Z,65.94
2018-06-04T06:09:37.158Z,66.33
2018-06-04T06:12:04.998Z,65.11
2018-06-04T06:14:32.815Z,65.14
2018-06-04T06:17:00.644Z,64.36
2018-06-04T06:19:28.487Z,62.76
2018-06-04T06:21:56.650Z,64.56
2018-06-04T06:24:24.616Z,63.51
2018-06-04T06:26:52.545Z,62.58
2018-06-04T06:29:20.359Z,61.76
2018-06-04T06:31:48.163Z,60.85
2018-06-04T06:34:16.028Z,60.24
2018-06-04T06:36:43.848Z,59.35
2018-06-04T06:39:12.101Z,58.43
2018-06-04T06:41:39.927Z,59.09
2018-06-04T06:44:07.748Z,59.13
2018-06-04T06:46:35.539Z,57.79
2018-06-04T06:49:03.562Z,58.40
2018-06-04T06:51:31.395Z,56.86
2018-06-04T06:53:59.341Z,59.06
2018-06-04T06:56:27.343Z,57.20
2018-06-04T06:58:55.148Z,56.62
2018-06-04T07:01:23.140Z,55.12
2018-06-04T07:03:51.004Z,55.80
2018-06-04T07:06:23.980Z,56.65
2018-06-04T07:08:51.773Z,56.61
2018-06-04T07:11:19.679Z,55.89
2018-06-04T07:13:47.511Z,54.58
2018-06-04T07:16:15.286Z,55.12
2018-06-04T07:18:43.179Z,53.09
2018-06-04T07:21:11.104Z,51.87
2018-06-04T07:23:39.007Z,50.95
2018-06-04T07:26:06.856Z,50.29
2018-06-04T07:28:35.042Z,49.00
2018-06-04T07:31:02.833Z,47.45
2018-06-04T07:33:36.880Z,48.69
2018-06-04T07:43:08.470Z,48.29
2018-06-04T07:45:36.279Z,47.84
2018-06-04T07:48:04.221Z,46.72
2018-06-04T07:50:32.248Z,46.61
2018-06-04T07:53:00.110Z,47.21
2018-06-04T07:55:27.903Z,45.59
2018-06-04T07:57:55.766Z,46.58
2018-06-04T08:00:23.583Z,46.48
2018-06-04T08:02:51.541Z,46.19
2018-06-04T08:05:19.541Z,46.29
2018-06-04T08:07:47.357Z,47.85
2018-06-04T08:10:15.206Z,46.06
2018-06-04T08:12:43.114Z,45.58
2018-06-04T08:15:10.944Z,45.58
2018-06-04T08:17:38.758Z,46.08
2018-06-04T08:20:06.800Z,45.68
2018-06-04T08:22:34.635Z,45.67
2018-06-04T08:25:03.063Z,45.34
2018-06-04T08:27:30.928Z,44.72
2018-06-04T08:29:58.760Z,43.92
2018-06-04T08:32:26.559Z,44.17
2018-06-04T08:34:54.484Z,43.16
2018-06-04T08:37:22.317Z,42.27
2018-06-04T08:39:50.286Z,43.46
2018-06-04T08:42:18.137Z,42.22
2018-06-04T08:44:45.957Z,41.95
2018-06-04T08:47:13.809Z,42.54
2018-06-04T08:49:41.662Z,42.07
2018-06-04T08:52:09.625Z,41.84
2018-06-04T08:54:37.415Z,40.00
2018-06-04T08:57:08.504Z,38.56
2018-06-04T08:59:36.439Z,37.74
2018-06-04T09:02:04.368Z,37.27
2018-06-04T09:04:32.253Z,37.82
2018-06-04T09:07:00.077Z,37.15
2018-06-04T09:09:28.078Z,35.85
2018-06-04T09:11:56.045Z,35.03
2018-06-04T09:14:23.907Z,34.62
2018-06-04T09:16:51.711Z,35.34
2018-06-04T09:19:19.604Z,35.70
2018-06-04T09:21:47.415Z,35.55
2018-06-04T09:24:15.243Z,35.85
2018-06-04T09:26:44.932Z,35.74
2018-06-04T09:29:12.872Z,37.65
2018-06-04T09:31:40.679Z,36.71
2018-06-04T09:34:08.511Z,38.08
2018-06-04T09:36:36.386Z,37.31
2018-06-04T09:39:06.754Z,36.13
2018-06-04T09:41:34.714Z,36.39
2018-06-04T09:44:02.565Z,37.91
2018-06-04T09:46:30.391Z,38.15
2018-06-04T09:48:58.235Z,38.80
2018-06-04T09:51:26.030Z,37.65
2018-06-04T09:53:53.914Z,37.97
2018-06-04T09:56:21.722Z,37.47
2018-06-04T09:58:49.539Z,38.85
2018-06-04T10:01:17.350Z,37.86
2018-06-04T10:03:45.249Z,35.67
2018-06-04T10:06:13.048Z,35.33
2018-06-04T10:08:41.413Z,35.67
2018-06-04T10:11:09.413Z,33.78
2018-06-04T10:13:37.215Z,35.52
2018-06-04T10:16:05.074Z,34.85
2018-06-04T10:18:32.932Z,36.86
2018-06-04T10:21:00.724Z,35.80
2018-06-04T10:23:28.557Z,36.61
2018-06-04T10:25:56.608Z,35.35
2018-06-04T10:28:25.560Z,35.84
2018-06-04T10:30:53.532Z,35.32
2018-06-04T10:33:21.516Z,34.66
2018-06-04T10:35:49.315Z,33.54
2018-06-04T10:38:17.137Z,34.28
2018-06-04T10:40:45.199Z,34.23
2018-06-04T10:43:13.047Z,35.08
2018-06-04T10:45:40.874Z,33.65
2018-06-04T10:48:08.806Z,33.30
2018-06-04T10:50:36.671Z,34.24
2018-06-04T10:53:04.516Z,33.11
2018-06-04T10:55:32.415Z,33.40
2018-06-04T10:58:00.315Z,32.05
2018-06-04T11:00:28.136Z,31.57
2018-06-04T11:02:55.981Z,31.19
2018-06-04T11:05:23.811Z,32.36
2018-06-04T11:07:51.628Z,31.48
2018-06-04T11:10:19.716Z,30.80
2018-06-04T11:12:47.534Z,30.64
2018-06-04T11:15:15.372Z,30.63
2018-06-04T11:17:43.247Z,31.23
2018-06-04T11:20:11.059Z,30.40
2018-06-04T11:22:38.899Z,30.51
2018-06-04T11:25:06.801Z,30.15
2018-06-04T11:27:34.623Z,28.71
2018-06-04T11:30:02.634Z,27.96
2018-06-04T11:32:30.581Z,28.83
2018-06-04T11:34:58.530Z,29.92
2018-06-04T11:37:26.353Z,31.36
2018-06-04T11:39:54.236Z,31.17
2018-06-04T11:42:22.201Z,32.33
2018-06-04T11:44:50.015Z,31.33
2018-06-04T11:47:17.885Z,30.62
2018-06-04T11:49:45.697Z,31.89
2018-06-04T11:52:13.527Z,31.49
2018-06-04T11:54:41.441Z,30.61
2018-06-04T11:57:09.264Z,30.76
2018-06-04T11:59:37.092Z,31.20
2018-06-04T12:02:04.944Z,31.90
2018-06-04T12:04:32.765Z,31.74
2018-06-04T12:07:00.699Z,31.67
2018-06-04T12:09:28.676Z,32.18
2018-06-04T12:11:56.489Z,31.25
2018-06-04T12:14:24.291Z,30.93
2018-06-04T12:16:52.219Z,31.56
2018-06-04T12:19:20.073Z,31.64
2018-06-04T12:21:47.991Z,30.63
2018-06-04T12:24:15.839Z,30.43
2018-06-04T12:26:43.634Z,30.14
2018-06-04T12:29:11.443Z,31.05
2018-06-04T12:31:39.421Z,31.33
2018-06-04T12:34:07.230Z,30.51
2018-06-04T12:36:35.173Z,31.17
2018-06-04T12:39:03.780Z,31.07
2018-06-04T12:41:31.600Z,31.30
2018-06-04T12:43:59.442Z,30.97
2018-06-04T12:46:27.287Z,32.14
2018-06-04T12:48:55.087Z,32.39
2018-06-04T12:51:22.907Z,32.46
2018-06-04T12:53:50.768Z,30.90
2018-06-04T12:56:18.589Z,30.50
2018-06-04T12:58:46.391Z,29.46
2018-06-04T13:01:14.282Z,30.48
2018-06-04T13:03:42.077Z,30.67
2018-06-04T13:06:09.923Z,31.17
2018-06-04T13:08:37.796Z,31.66
2018-06-04T13:11:05.645Z,29.72
2018-06-04T13:13:33.476Z,30.54
2018-06-04T13:16:01.353Z,30.51
2018-06-04T13:18:29.166Z,32.05
2018-06-04T13:20:56.983Z,31.10
2018-06-04T13:23:24.882Z,32.83
2018-06-04T13:25:52.696Z,33.81
2018-06-04T13:28:20.509Z,34.84
2018-06-04T13:30:48.451Z,34.50
2018-06-04T13:33:16.844Z,33.57
2018-06-04T13:35:44.649Z,33.43
2018-06-04T13:38:12.488Z,33.03
2018-06-04T13:40:40.323Z,33.36
2018-06-04T13:43:08.271Z,32.89
2018-06-04T13:45:36.288Z,34.88
2018-06-04T13:48:04.129Z,35.64
2018-06-04T13:50:31.963Z,34.14
2018-06-04T13:52:59.868Z,35.57
2018-06-04T13:55:27.648Z,35.53
2018-06-04T13:57:55.470Z,35.31
2018-06-04T14:00:23.333Z,35.54
2018-06-04T14:02:51.166Z,36.23
2018-06-04T14:05:18.968Z,36.84
2018-06-04T14:07:46.890Z,36.78
2018-06-04T14:10:14.706Z,36.76
2018-06-04T14:12:42.663Z,36.89
2018-06-04T14:15:10.526Z,36.88
2018-06-04T14:17:38.348Z,36.21
2018-06-04T14:20:06.188Z,36.75
2018-06-04T14:22:34.036Z,36.80
2018-06-04T14:25:01.869Z,37.16
2018-06-04T14:27:29.697Z,37.52
2018-06-04T14:29:57.610Z,38.38
2018-06-04T14:32:25.407Z,38.62
2018-06-04T14:34:53.481Z,39.29
2018-06-04T14:37:21.603Z,39.21
2018-06-04T14:39:49.400Z,39.57
2018-06-04T14:42:17.332Z,40.47
2018-06-04T14:44:45.222Z,40.43
2018-06-04T14:47:13.160Z,41.05
2018-06-04T14:49:40.994Z,41.13
2018-06-04T14:52:09.038Z,41.55
2018-06-04T14:54:36.847Z,41.32
2018-06-04T14:57:04.915Z,41.98
2018-06-04T14:59:32.803Z,42.10
2018-06-04T15:02:00.648Z,42.32
2018-06-04T15:04:28.443Z,42.72
2018-06-04T15:06:56.315Z,42.76
2018-06-04T15:09:24.132Z,42.85
2018-06-04T15:11:52.104Z,42.70
2018-06-04T15:14:20.288Z,43.32
2018-06-04T15:16:48.102Z,43.85
2018-06-04T15:19:15.911Z,44.00
2018-06-04T15:21:43.779Z,43.59
2018-06-04T15:24:11.589Z,44.20
2018-06-04T15:26:39.414Z,44.65
2018-06-04T15:29:07.265Z,44.48
2018-06-04T15:31:35.164Z,44.90
2018-06-04T15:34:02.998Z,44.07
2018-06-04T15:39:24.467Z,44.34
2018-06-04T15:41:52.443Z,44.62
2018-06-04T15:44:20.254Z,44.11
2018-06-04T15:46:48.159Z,43.34
2018-06-04T15:49:15.978Z,42.83
2018-06-04T15:51:43.801Z,42.44
2018-06-04T15:54:11.705Z,42.87
2018-06-04T15:56:39.527Z,41.99
2018-06-04T15:59:07.346Z,42.54
2018-06-04T16:01:35.247Z,42.78
2018-06-04T16:04:03.081Z,42.21
2018-06-04T16:06:30.940Z,42.04
2018-06-04T16:08:58.828Z,41.29
2018-06-04T16:11:26.777Z,40.56
2018-06-04T16:13:54.592Z,38.74
2018-06-04T16:16:22.446Z,37.52
2018-06-04T16:18:50.268Z,37.94
2018-06-04T16:21:18.088Z,36.97
2018-06-04T16:23:46.299Z,37.28
2018-06-04T16:26:14.134Z,37.19
2018-06-04T16:28:41.952Z,37.47
2018-06-04T16:31:09.819Z,38.28
2018-06-04T16:33:37.752Z,38.36
2018-06-04T16:36:05.665Z,37.84
2018-06-04T16:38:33.815Z,38.51
2018-06-04T16:41:01.636Z,40.03
2018-06-04T16:43:29.502Z,40.30
2018-06-04T16:45:57.435Z,40.70
2018-06-04T16:48:25.264Z,40.90
2018-06-04T16:50:53.086Z,42.21
2018-06-04T16:53:20.977Z,42.72
2018-06-04T16:55:48.753Z,43.71
2018-06-04T16:58:16.572Z,44.70
2018-06-04T17:00:44.471Z,45.13
2018-06-04T17:03:12.293Z,45.55
2018-06-04T17:05:40.103Z,46.32
2018-06-04T17:08:08.062Z,46.80
2018-06-04T17:10:35.874Z,47.49
2018-06-04T17:13:03.847Z,47.46
2018-06-04T17:15:31.706Z,48.22
2018-06-04T17:17:59.523Z,48.58
2018-06-04T17:20:27.392Z,49.43
2018-06-04T17:22:55.313Z,50.04
2018-06-04T17:25:23.174Z,50.17
2018-06-04T17:27:51.009Z,49.55
2018-06-04T17:30:19.036Z,50.09
2018-06-04T17:32:46.844Z,50.18
2018-06-04T17:35:29.652Z,50.08
2018-06-04T17:37:57.501Z,50.20
2018-06-04T17:40:25.500Z,50.69
2018-06-04T17:42:53.355Z,50.76
2018-06-04T17:45:21.175Z,51.14
2018-06-04T17:47:54.072Z,51.08
2018-06-04T17:50:22.255Z,48.57
2018-06-04T17:52:50.423Z,48.15
2018-06-04T17:55:18.628Z,47.33
2018-06-04T17:57:46.818Z,46.59
2018-06-04T18:00:15.258Z,45.75
2018-06-04T18:02:43.666Z,44.69
2018-06-04T18:05:14.080Z,43.64
2018-06-04T18:07:45.055Z,43.08
2018-06-04T18:10:13.423Z,43.20
2018-06-04T18:12:46.870Z,43.74
2018-06-04T18:15:15.346Z,44.14
2018-06-04T18:17:45.654Z,46.08
2018-06-04T18:20:13.567Z,46.46
2018-06-04T18:22:41.699Z,46.92
2018-06-04T18:25:09.817Z,47.76
2018-06-04T18:27:37.653Z,49.56
2018-06-04T18:30:05.544Z,52.16
2018-06-04T18:32:34.723Z,53.68
2018-06-04T18:35:03.166Z,51.92
2018-06-04T18:37:31.162Z,53.50
2018-06-04T18:39:59.195Z,53.50
2018-06-04T18:42:28.267Z,54.21
2018-06-04T18:44:57.128Z,54.87
2018-06-04T18:47:25.137Z,55.71
2018-06-04T18:49:54.278Z,55.99
2018-06-04T18:52:22.260Z,53.62
2018-06-04T18:54:50.696Z,55.22
2018-06-04T18:57:18.874Z,55.64
2018-06-04T18:59:47.044Z,55.36
2018-06-04T19:02:15.037Z,54.21
2018-06-04T19:04:43.038Z,57.07
2018-06-04T19:07:10.908Z,56.08
2018-06-04T19:09:38.797Z,56.66
2018-06-04T19:12:06.767Z,57.37
2018-06-04T19:14:34.796Z,57.90
2018-06-04T19:17:02.754Z,58.19
2018-06-04T19:19:30.828Z,58.89
2018-06-04T19:21:58.857Z,58.18
2018-06-04T19:24:26.983Z,58.61
2018-06-04T19:26:55.568Z,58.53
2018-06-04T19:29:23.553Z,59.19
2018-06-04T19:31:52.173Z,58.96
2018-06-04T19:34:20.235Z,57.46
2018-06-04T19:36:48.295Z,56.98
2018-06-04T19:39:16.399Z,56.47
2018-06-04T19:41:44.471Z,58.04
2018-06-04T19:44:12.543Z,57.70
2018-06-04T19:46:40.382Z,57.68
2018-06-04T19:49:08.250Z,58.15
2018-06-04T19:51:36.144Z,58.52
2018-06-04T19:54:04.218Z,58.58
2018-06-04T19:56:32.298Z,58.73
2018-06-04T19:59:00.139Z,59.84
2018-06-04T20:01:28.136Z,60.02
2018-06-04T20:03:56.179Z,59.58
2018-06-04T20:06:24.018Z,60.38
2018-06-04T20:08:51.888Z,60.75
2018-06-04T20:11:19.768Z,59.47
2018-06-04T20:13:47.595Z,59.45
2018-06-04T20:16:15.421Z,59.09
2018-06-04T20:18:43.300Z,59.23
2018-06-04T20:21:11.250Z,60.12
2018-06-04T20:23:39.059Z,60.14
2018-06-04T20:26:07.020Z,59.56
2018-06-04T20:28:34.845Z,59.67
2018-06-04T20:31:02.757Z,60.23
2018-06-04T20:33:30.687Z,60.05
2018-06-04T20:35:58.543Z,61.61
2018-06-04T20:38:26.520Z,61.89
2018-06-04T20:40:54.513Z,61.83
2018-06-04T20:43:22.360Z,62.75
2018-06-04T20:45:50.709Z,62.65
2018-06-04T20:48:18.621Z,63.20
2018-06-04T20:50:46.435Z,62.81
2018-06-04T20:53:14.241Z,63.48
2018-06-04T20:55:42.089Z,62.72
2018-06-04T20:58:10.029Z,63.37
2018-06-04T21:00:37.824Z,63.43
2018-06-04T21:03:05.816Z,63.26
2018-06-04T21:05:33.763Z,62.76
2018-06-04T21:08:01.603Z,63.62
2018-06-04T21:10:29.553Z,63.42
2018-06-04T21:12:57.382Z,63.42
2018-06-04T21:15:25.346Z,62.66
2018-06-04T21:17:53.194Z,63.27
2018-06-04T21:20:20.994Z,63.45
2018-06-04T21:22:48.848Z,63.07
2018-06-04T21:25:16.707Z,64.07
2018-06-04T21:27:44.640Z,64.29
2018-06-04T21:30:12.486Z,65.19
2018-06-04T21:32:40.390Z,64.78
2018-06-04T21:35:08.196Z,65.83
2018-06-04T21:37:35.994Z,66.24
2018-06-04T21:40:04.103Z,65.05
2018-06-04T21:42:31.920Z,65.25
2018-06-04T21:44:59.746Z,66.71
2018-06-04T21:47:27.765Z,67.77
2018-06-04T21:49:55.596Z,67.99
2018-06-04T21:52:23.428Z,67.83
2018-06-04T21:54:51.364Z,67.33
2018-06-04T21:57:19.178Z,67.07
2018-06-04T21:59:46.991Z,66.80
2018-06-04T22:02:14.844Z,66.71
2018-06-04T22:04:42.776Z,66.91
2018-06-04T22:07:10.613Z,67.56
2018-06-04T22:09:38.493Z,67.21
2018-06-04T22:12:06.333Z,67.24
2018-06-04T22:14:34.281Z,67.21
2018-06-04T22:17:02.572Z,67.45
2018-06-04T22:19:30.386Z,67.55
2018-06-04T22:21:58.193Z,67.90
2018-06-04T22:24:26.175Z,68.86
2018-06-04T22:26:53.971Z,69.82
2018-06-04T22:29:21.767Z,71.03
2018-06-04T22:31:49.597Z,72.19
2018-06-04T22:34:17.412Z,71.71
2018-06-04T22:36:45.207Z,71.34
2018-06-04T22:39:14.890Z,71.31
2018-06-04T22:41:42.705Z,70.92
2018-06-04T22:44:10.541Z,71.13
2018-06-04T22:46:38.405Z,70.74
2018-06-04T22:49:08.919Z,72.16
2018-06-04T22:51:36.884Z,72.24
2018-06-04T22:54:04.766Z,73.17
2018-06-04T22:56:32.574Z,73.98
2018-06-04T22:59:00.509Z,73.69
2018-06-04T23:01:28.859Z,75.37
2018-06-04T23:03:56.796Z,75.68
2018-06-04T23:06:24.604Z,76.79
2018-06-04T23:08:52.429Z,76.69
2018-06-04T23:11:20.230Z,77.10
2018-06-04T23:13:48.027Z,77.43
2018-06-04T23:16:15.858Z,76.22
2018-06-04T23:18:43.660Z,75.43
2018-06-04T23:21:11.461Z,75.09
2018-06-04T23:23:39.363Z,75.08
2018-06-04T23:26:07.181Z,74.36
2018-06-04T23:28:34.988Z,74.24
2018-06-04T23:31:02.827Z,74.65
2018-06-04T23:33:30.960Z,73.81
2018-06-04T23:35:58.775Z,74.28
2018-06-04T23:38:26.616Z,74.73
2018-06-04T23:40:54.439Z,74.71
2018-06-04T23:43:22.244Z,74.17
2018-06-04T23:45:50.338Z,74.14
2018-06-04T23:48:18.154Z,74.70
2018-06-04T23:50:46.084Z,74.39
2018-06-04T23:53:13.941Z,75.30
2018-06-04T23:55:41.742Z,74.69
2018-06-04T23:58:09.566Z,76.22
